sensor_id;sensor_type;location;lat;lon;timestamp;pressure;altitude;pressure_sealevel;temperature
37536;BMP180;23379;51.554;6.736;2022-07-24T00:00:37;101480.00;;;19.10
37536;BMP180;23379;51.554;6.736;2022-07-24T00:03:03;101450.00;;;19.10
37536;BMP180;23379;51.554;6.736;2022-07-24T00:05:28;101458.00;;;18.90
37536;BMP180;23379;51.554;6.736;2022-07-24T00:07:54;101437.00;;;19.10
37536;BMP180;23379;51.554;6.736;2022-07-24T00:10:19;101446.00;;;18.90
37536;BMP180;23379;51.554;6.736;2022-07-24T00:12:45;101459.00;;;18.90
37536;BMP180;23379;51.554;6.736;2022-07-24T00:15:10;101455.00;;;18.90
37536;BMP180;23379;51.554;6.736;2022-07-24T00:17:36;101428.00;;;18.90
37536;BMP180;23379;51.554;6.736;2022-07-24T00:20:03;101422.00;;;18.90
37536;BMP180;23379;51.554;6.736;2022-07-24T00:22:28;101456.00;;;18.80
37536;BMP180;23379;51.554;6.736;2022-07-24T00:24:54;101436.00;;;18.60
37536;BMP180;23379;51.554;6.736;2022-07-24T00:27:19;101432.00;;;18.60
37536;BMP180;23379;51.554;6.736;2022-07-24T00:29:45;101420.00;;;18.50
37536;BMP180;23379;51.554;6.736;2022-07-24T00:32:10;101428.00;;;18.50
37536;BMP180;23379;51.554;6.736;2022-07-24T00:34:35;101432.00;;;18.40
37536;BMP180;23379;51.554;6.736;2022-07-24T00:37:01;101427.00;;;18.40
37536;BMP180;23379;51.554;6.736;2022-07-24T00:39:26;101427.00;;;18.40
37536;BMP180;23379;51.554;6.736;2022-07-24T00:41:52;101431.00;;;18.50
37536;BMP180;23379;51.554;6.736;2022-07-24T00:44:18;101450.00;;;18.40
37536;BMP180;23379;51.554;6.736;2022-07-24T00:46:46;101438.00;;;18.40
37536;BMP180;23379;51.554;6.736;2022-07-24T00:49:14;101434.00;;;18.30
37536;BMP180;23379;51.554;6.736;2022-07-24T00:51:42;101453.00;;;18.40
37536;BMP180;23379;51.554;6.736;2022-07-24T00:54:08;101417.00;;;18.50
37536;BMP180;23379;51.554;6.736;2022-07-24T00:56:35;101458.00;;;18.50
37536;BMP180;23379;51.554;6.736;2022-07-24T00:59:01;101457.00;;;18.50
37536;BMP180;23379;51.554;6.736;2022-07-24T01:01:27;101414.00;;;18.30
37536;BMP180;23379;51.554;6.736;2022-07-24T01:03:52;101431.00;;;18.30
37536;BMP180;23379;51.554;6.736;2022-07-24T01:06:18;101433.00;;;18.30
37536;BMP180;23379;51.554;6.736;2022-07-24T01:08:45;101453.00;;;18.30
37536;BMP180;23379;51.554;6.736;2022-07-24T01:11:11;101418.00;;;18.00
37536;BMP180;23379;51.554;6.736;2022-07-24T01:13:37;101433.00;;;18.20
37536;BMP180;23379;51.554;6.736;2022-07-24T01:16:02;101431.00;;;18.00
37536;BMP180;23379;51.554;6.736;2022-07-24T01:18:28;101445.00;;;17.90
37536;BMP180;23379;51.554;6.736;2022-07-24T01:20:54;101417.00;;;18.10
37536;BMP180;23379;51.554;6.736;2022-07-24T01:23:21;101434.00;;;17.80
37536;BMP180;23379;51.554;6.736;2022-07-24T01:25:46;101422.00;;;17.80
37536;BMP180;23379;51.554;6.736;2022-07-24T01:28:12;101434.00;;;17.80
37536;BMP180;23379;51.554;6.736;2022-07-24T01:30:37;101413.00;;;17.80
37536;BMP180;23379;51.554;6.736;2022-07-24T01:33:03;101419.00;;;17.70
37536;BMP180;23379;51.554;6.736;2022-07-24T01:35:28;101410.00;;;17.50
37536;BMP180;23379;51.554;6.736;2022-07-24T01:37:54;101412.00;;;17.50
37536;BMP180;23379;51.554;6.736;2022-07-24T01:40:21;101422.00;;;17.70
37536;BMP180;23379;51.554;6.736;2022-07-24T01:42:47;101431.00;;;17.60
37536;BMP180;23379;51.554;6.736;2022-07-24T01:45:13;101411.00;;;17.70
37536;BMP180;23379;51.554;6.736;2022-07-24T01:47:39;101411.00;;;17.70
37536;BMP180;23379;51.554;6.736;2022-07-24T01:50:05;101414.00;;;17.70
37536;BMP180;23379;51.554;6.736;2022-07-24T01:52:31;101411.00;;;17.60
37536;BMP180;23379;51.554;6.736;2022-07-24T01:54:56;101413.00;;;17.60
37536;BMP180;23379;51.554;6.736;2022-07-24T01:57:22;101394.00;;;17.60
37536;BMP180;23379;51.554;6.736;2022-07-24T01:59:47;101414.00;;;17.60
37536;BMP180;23379;51.554;6.736;2022-07-24T02:02:12;101424.00;;;17.60
37536;BMP180;23379;51.554;6.736;2022-07-24T02:04:38;101414.00;;;17.50
37536;BMP180;23379;51.554;6.736;2022-07-24T02:07:04;101424.00;;;17.60
37536;BMP180;23379;51.554;6.736;2022-07-24T02:09:29;101412.00;;;17.70
37536;BMP180;23379;51.554;6.736;2022-07-24T02:11:54;101402.00;;;17.50
37536;BMP180;23379;51.554;6.736;2022-07-24T02:14:20;101414.00;;;17.50
37536;BMP180;23379;51.554;6.736;2022-07-24T02:16:45;101413.00;;;17.60
37536;BMP180;23379;51.554;6.736;2022-07-24T02:19:11;101412.00;;;17.60
37536;BMP180;23379;51.554;6.736;2022-07-24T02:21:37;101403.00;;;17.80
37536;BMP180;23379;51.554;6.736;2022-07-24T02:24:03;101397.00;;;17.80
37536;BMP180;23379;51.554;6.736;2022-07-24T02:26:28;101416.00;;;17.70
37536;BMP180;23379;51.554;6.736;2022-07-24T02:28:54;101423.00;;;17.90
37536;BMP180;23379;51.554;6.736;2022-07-24T02:31:19;101386.00;;;17.90
37536;BMP180;23379;51.554;6.736;2022-07-24T02:33:45;101390.00;;;18.00
37536;BMP180;23379;51.554;6.736;2022-07-24T02:36:10;101394.00;;;18.00
37536;BMP180;23379;51.554;6.736;2022-07-24T02:38:36;101387.00;;;17.60
37536;BMP180;23379;51.554;6.736;2022-07-24T02:41:01;101381.00;;;17.80
37536;BMP180;23379;51.554;6.736;2022-07-24T02:43:27;101359.00;;;18.00
37536;BMP180;23379;51.554;6.736;2022-07-24T02:45:52;101374.00;;;17.90
37536;BMP180;23379;51.554;6.736;2022-07-24T02:48:18;101393.00;;;17.80
37536;BMP180;23379;51.554;6.736;2022-07-24T02:50:43;101389.00;;;17.90
37536;BMP180;23379;51.554;6.736;2022-07-24T02:53:09;101364.00;;;18.00
37536;BMP180;23379;51.554;6.736;2022-07-24T02:55:34;101382.00;;;18.00
37536;BMP180;23379;51.554;6.736;2022-07-24T02:58:00;101383.00;;;18.00
37536;BMP180;23379;51.554;6.736;2022-07-24T03:00:25;101375.00;;;18.00
37536;BMP180;23379;51.554;6.736;2022-07-24T03:02:51;101382.00;;;18.10
37536;BMP180;23379;51.554;6.736;2022-07-24T03:05:16;101370.00;;;18.00
37536;BMP180;23379;51.554;6.736;2022-07-24T03:07:42;101383.00;;;18.10
37536;BMP180;23379;51.554;6.736;2022-07-24T03:10:10;101373.00;;;18.10
37536;BMP180;23379;51.554;6.736;2022-07-24T03:12:35;101381.00;;;18.00
37536;BMP180;23379;51.554;6.736;2022-07-24T03:15:01;101393.00;;;18.30
37536;BMP180;23379;51.554;6.736;2022-07-24T03:17:26;101389.00;;;18.30
37536;BMP180;23379;51.554;6.736;2022-07-24T03:19:52;101386.00;;;18.20
37536;BMP180;23379;51.554;6.736;2022-07-24T03:22:17;101377.00;;;18.30
37536;BMP180;23379;51.554;6.736;2022-07-24T03:24:43;101366.00;;;18.30
37536;BMP180;23379;51.554;6.736;2022-07-24T03:27:08;101379.00;;;18.40
37536;BMP180;23379;51.554;6.736;2022-07-24T03:29:33;101392.00;;;18.40
37536;BMP180;23379;51.554;6.736;2022-07-24T03:31:59;101366.00;;;18.40
37536;BMP180;23379;51.554;6.736;2022-07-24T03:34:25;101371.00;;;18.40
37536;BMP180;23379;51.554;6.736;2022-07-24T03:36:50;101363.00;;;18.20
37536;BMP180;23379;51.554;6.736;2022-07-24T03:39:16;101365.00;;;18.20
37536;BMP180;23379;51.554;6.736;2022-07-24T03:41:41;101379.00;;;18.30
37536;BMP180;23379;51.554;6.736;2022-07-24T03:44:07;101385.00;;;18.10
37536;BMP180;23379;51.554;6.736;2022-07-24T03:46:32;101375.00;;;18.10
37536;BMP180;23379;51.554;6.736;2022-07-24T03:48:58;101368.00;;;18.20
37536;BMP180;23379;51.554;6.736;2022-07-24T03:51:24;101400.00;;;18.40
37536;BMP180;23379;51.554;6.736;2022-07-24T03:53:50;101399.00;;;18.10
37536;BMP180;23379;51.554;6.736;2022-07-24T03:56:16;101385.00;;;18.10
37536;BMP180;23379;51.554;6.736;2022-07-24T03:58:42;101361.00;;;18.30
37536;BMP180;23379;51.554;6.736;2022-07-24T04:01:07;101382.00;;;18.10
37536;BMP180;23379;51.554;6.736;2022-07-24T04:03:33;101367.00;;;18.30
37536;BMP180;23379;51.554;6.736;2022-07-24T04:06:03;101375.00;;;18.40
37536;BMP180;23379;51.554;6.736;2022-07-24T04:08:29;101349.00;;;18.30
37536;BMP180;23379;51.554;6.736;2022-07-24T04:10:54;101372.00;;;18.30
37536;BMP180;23379;51.554;6.736;2022-07-24T04:13:27;101380.00;;;18.40
37536;BMP180;23379;51.554;6.736;2022-07-24T04:15:53;101397.00;;;18.30
37536;BMP180;23379;51.554;6.736;2022-07-24T04:18:19;101386.00;;;18.20
37536;BMP180;23379;51.554;6.736;2022-07-24T04:20:45;101361.00;;;18.70
37536;BMP180;23379;51.554;6.736;2022-07-24T04:23:10;101365.00;;;18.40
37536;BMP180;23379;51.554;6.736;2022-07-24T04:25:36;101380.00;;;18.40
37536;BMP180;23379;51.554;6.736;2022-07-24T04:28:01;101367.00;;;18.50
37536;BMP180;23379;51.554;6.736;2022-07-24T04:30:27;101390.00;;;18.70
37536;BMP180;23379;51.554;6.736;2022-07-24T04:32:52;101383.00;;;18.70
37536;BMP180;23379;51.554;6.736;2022-07-24T04:35:18;101385.00;;;18.80
37536;BMP180;23379;51.554;6.736;2022-07-24T04:37:44;101367.00;;;18.90
37536;BMP180;23379;51.554;6.736;2022-07-24T04:40:11;101371.00;;;19.00
37536;BMP180;23379;51.554;6.736;2022-07-24T04:42:37;101377.00;;;19.20
37536;BMP180;23379;51.554;6.736;2022-07-24T04:45:03;101374.00;;;19.50
37536;BMP180;23379;51.554;6.736;2022-07-24T04:47:29;101370.00;;;19.50
37536;BMP180;23379;51.554;6.736;2022-07-24T04:49:54;101373.00;;;20.00
37536;BMP180;23379;51.554;6.736;2022-07-24T04:52:20;101399.00;;;20.60
37536;BMP180;23379;51.554;6.736;2022-07-24T04:54:45;101382.00;;;20.50
37536;BMP180;23379;51.554;6.736;2022-07-24T04:57:10;101378.00;;;20.40
37536;BMP180;23379;51.554;6.736;2022-07-24T04:59:36;101379.00;;;20.40
37536;BMP180;23379;51.554;6.736;2022-07-24T05:02:01;101372.00;;;20.40
37536;BMP180;23379;51.554;6.736;2022-07-24T05:04:29;101367.00;;;20.80
37536;BMP180;23379;51.554;6.736;2022-07-24T05:06:54;101392.00;;;20.70
37536;BMP180;23379;51.554;6.736;2022-07-24T05:09:20;101393.00;;;20.50
37536;BMP180;23379;51.554;6.736;2022-07-24T05:11:45;101380.00;;;20.10
37536;BMP180;23379;51.554;6.736;2022-07-24T05:14:10;101393.00;;;19.90
37536;BMP180;23379;51.554;6.736;2022-07-24T05:16:36;101407.00;;;20.30
37536;BMP180;23379;51.554;6.736;2022-07-24T05:19:02;101402.00;;;21.00
37536;BMP180;23379;51.554;6.736;2022-07-24T05:21:27;101404.00;;;21.10
37536;BMP180;23379;51.554;6.736;2022-07-24T05:23:53;101399.00;;;20.20
37536;BMP180;23379;51.554;6.736;2022-07-24T05:26:18;101419.00;;;20.00
37536;BMP180;23379;51.554;6.736;2022-07-24T05:28:43;101408.00;;;20.30
37536;BMP180;23379;51.554;6.736;2022-07-24T05:31:09;101414.00;;;20.30
37536;BMP180;23379;51.554;6.736;2022-07-24T05:33:34;101421.00;;;20.40
37536;BMP180;23379;51.554;6.736;2022-07-24T05:36:00;101441.00;;;20.10
37536;BMP180;23379;51.554;6.736;2022-07-24T05:38:26;101431.00;;;20.20
37536;BMP180;23379;51.554;6.736;2022-07-24T05:40:51;101430.00;;;20.20
37536;BMP180;23379;51.554;6.736;2022-07-24T05:43:17;101430.00;;;20.50
37536;BMP180;23379;51.554;6.736;2022-07-24T05:45:43;101431.00;;;20.60
37536;BMP180;23379;51.554;6.736;2022-07-24T05:48:08;101428.00;;;20.40
37536;BMP180;23379;51.554;6.736;2022-07-24T05:50:33;101419.00;;;20.30
37536;BMP180;23379;51.554;6.736;2022-07-24T05:52:59;101412.00;;;19.90
37536;BMP180;23379;51.554;6.736;2022-07-24T05:55:24;101402.00;;;20.30
37536;BMP180;23379;51.554;6.736;2022-07-24T05:57:50;101406.00;;;20.30
37536;BMP180;23379;51.554;6.736;2022-07-24T06:00:15;101400.00;;;20.50
37536;BMP180;23379;51.554;6.736;2022-07-24T06:02:45;101410.00;;;20.70
37536;BMP180;23379;51.554;6.736;2022-07-24T06:05:11;101399.00;;;21.00
37536;BMP180;23379;51.554;6.736;2022-07-24T06:07:36;101401.00;;;21.00
37536;BMP180;23379;51.554;6.736;2022-07-24T06:10:03;101400.00;;;21.30
37536;BMP180;23379;51.554;6.736;2022-07-24T06:12:29;101416.00;;;21.40
37536;BMP180;23379;51.554;6.736;2022-07-24T06:14:54;101411.00;;;21.70
37536;BMP180;23379;51.554;6.736;2022-07-24T06:17:19;101399.00;;;21.70
37536;BMP180;23379;51.554;6.736;2022-07-24T06:19:45;101403.00;;;21.60
37536;BMP180;23379;51.554;6.736;2022-07-24T06:22:10;101412.00;;;21.70
37536;BMP180;23379;51.554;6.736;2022-07-24T06:24:36;101403.00;;;21.80
37536;BMP180;23379;51.554;6.736;2022-07-24T06:27:01;101409.00;;;21.80
37536;BMP180;23379;51.554;6.736;2022-07-24T06:29:26;101410.00;;;21.90
37536;BMP180;23379;51.554;6.736;2022-07-24T06:31:52;101409.00;;;21.70
37536;BMP180;23379;51.554;6.736;2022-07-24T06:34:17;101411.00;;;22.10
37536;BMP180;23379;51.554;6.736;2022-07-24T06:36:45;101409.00;;;22.00
37536;BMP180;23379;51.554;6.736;2022-07-24T06:39:10;101402.00;;;21.80
37536;BMP180;23379;51.554;6.736;2022-07-24T06:41:36;101396.00;;;22.10
37536;BMP180;23379;51.554;6.736;2022-07-24T06:44:01;101401.00;;;22.20
37536;BMP180;23379;51.554;6.736;2022-07-24T06:46:27;101410.00;;;22.40
37536;BMP180;23379;51.554;6.736;2022-07-24T06:48:52;101403.00;;;22.10
37536;BMP180;23379;51.554;6.736;2022-07-24T06:51:18;101387.00;;;21.80
37536;BMP180;23379;51.554;6.736;2022-07-24T06:53:43;101395.00;;;21.70
37536;BMP180;23379;51.554;6.736;2022-07-24T06:56:12;101383.00;;;22.00
37536;BMP180;23379;51.554;6.736;2022-07-24T06:58:37;101410.00;;;22.40
37536;BMP180;23379;51.554;6.736;2022-07-24T07:01:03;101418.00;;;22.70
37536;BMP180;23379;51.554;6.736;2022-07-24T07:03:28;101412.00;;;22.80
37536;BMP180;23379;51.554;6.736;2022-07-24T07:05:53;101420.00;;;22.90
37536;BMP180;23379;51.554;6.736;2022-07-24T07:08:19;101421.00;;;22.80
37536;BMP180;23379;51.554;6.736;2022-07-24T07:10:44;101424.00;;;23.10
37536;BMP180;23379;51.554;6.736;2022-07-24T07:13:10;101407.00;;;23.10
37536;BMP180;23379;51.554;6.736;2022-07-24T07:15:35;101423.00;;;23.50
37536;BMP180;23379;51.554;6.736;2022-07-24T07:18:00;101423.00;;;23.30
37536;BMP180;23379;51.554;6.736;2022-07-24T07:20:26;101435.00;;;23.50
37536;BMP180;23379;51.554;6.736;2022-07-24T07:22:53;101425.00;;;23.40
37536;BMP180;23379;51.554;6.736;2022-07-24T07:25:18;101409.00;;;23.60
37536;BMP180;23379;51.554;6.736;2022-07-24T07:27:44;101434.00;;;23.40
37536;BMP180;23379;51.554;6.736;2022-07-24T07:30:09;101423.00;;;23.30
37536;BMP180;23379;51.554;6.736;2022-07-24T07:32:37;101445.00;;;23.20
37536;BMP180;23379;51.554;6.736;2022-07-24T07:35:03;101418.00;;;23.50
37536;BMP180;23379;51.554;6.736;2022-07-24T07:37:29;101436.00;;;23.30
37536;BMP180;23379;51.554;6.736;2022-07-24T07:39:54;101424.00;;;23.50
37536;BMP180;23379;51.554;6.736;2022-07-24T07:42:19;101438.00;;;23.70
37536;BMP180;23379;51.554;6.736;2022-07-24T07:44:45;101438.00;;;23.90
37536;BMP180;23379;51.554;6.736;2022-07-24T07:47:10;101442.00;;;24.10
37536;BMP180;23379;51.554;6.736;2022-07-24T07:49:36;101437.00;;;24.10
37536;BMP180;23379;51.554;6.736;2022-07-24T07:52:01;101436.00;;;24.50
37536;BMP180;23379;51.554;6.736;2022-07-24T07:54:27;101437.00;;;24.50
37536;BMP180;23379;51.554;6.736;2022-07-24T07:56:52;101427.00;;;24.70
37536;BMP180;23379;51.554;6.736;2022-07-24T07:59:18;101428.00;;;24.70
37536;BMP180;23379;51.554;6.736;2022-07-24T08:01:43;101428.00;;;24.50
37536;BMP180;23379;51.554;6.736;2022-07-24T08:04:09;101428.00;;;24.80
37536;BMP180;23379;51.554;6.736;2022-07-24T08:06:34;101430.00;;;25.70
37536;BMP180;23379;51.554;6.736;2022-07-24T08:09:00;101430.00;;;26.20
37536;BMP180;23379;51.554;6.736;2022-07-24T08:11:25;101432.00;;;27.00
37536;BMP180;23379;51.554;6.736;2022-07-24T08:13:51;101435.00;;;28.00
37536;BMP180;23379;51.554;6.736;2022-07-24T08:16:16;101441.00;;;28.40
37536;BMP180;23379;51.554;6.736;2022-07-24T08:18:41;101439.00;;;28.60
37536;BMP180;23379;51.554;6.736;2022-07-24T08:21:07;101430.00;;;28.60
37536;BMP180;23379;51.554;6.736;2022-07-24T08:23:32;101429.00;;;29.90
37536;BMP180;23379;51.554;6.736;2022-07-24T08:25:57;101429.00;;;29.70
37536;BMP180;23379;51.554;6.736;2022-07-24T08:28:23;101430.00;;;30.10
37536;BMP180;23379;51.554;6.736;2022-07-24T08:30:49;101434.00;;;30.10
37536;BMP180;23379;51.554;6.736;2022-07-24T08:33:15;101440.00;;;29.90
37536;BMP180;23379;51.554;6.736;2022-07-24T08:35:40;101441.00;;;31.00
37536;BMP180;23379;51.554;6.736;2022-07-24T08:38:06;101440.00;;;31.80
37536;BMP180;23379;51.554;6.736;2022-07-24T08:40:37;101435.00;;;31.30
37536;BMP180;23379;51.554;6.736;2022-07-24T08:43:04;101434.00;;;31.20
37536;BMP180;23379;51.554;6.736;2022-07-24T08:45:34;101424.00;;;30.60
37536;BMP180;23379;51.554;6.736;2022-07-24T08:48:02;101434.00;;;31.00
37536;BMP180;23379;51.554;6.736;2022-07-24T08:50:27;101445.00;;;30.40
37536;BMP180;23379;51.554;6.736;2022-07-24T08:52:53;101441.00;;;31.40
37536;BMP180;23379;51.554;6.736;2022-07-24T08:55:19;101424.00;;;31.10
37536;BMP180;23379;51.554;6.736;2022-07-24T08:57:44;101432.00;;;31.20
37536;BMP180;23379;51.554;6.736;2022-07-24T09:00:10;101431.00;;;32.40
37536;BMP180;23379;51.554;6.736;2022-07-24T09:02:37;101408.00;;;30.60
37536;BMP180;23379;51.554;6.736;2022-07-24T09:05:03;101418.00;;;31.90
37536;BMP180;23379;51.554;6.736;2022-07-24T09:07:29;101429.00;;;32.10
37536;BMP180;23379;51.554;6.736;2022-07-24T09:10:07;101424.00;;;32.60
37536;BMP180;23379;51.554;6.736;2022-07-24T09:12:34;101412.00;;;33.10
37536;BMP180;23379;51.554;6.736;2022-07-24T09:15:11;101418.00;;;31.30
37536;BMP180;23379;51.554;6.736;2022-07-24T09:17:56;101416.00;;;32.10
37536;BMP180;23379;51.554;6.736;2022-07-24T09:20:24;101409.00;;;32.60
37536;BMP180;23379;51.554;6.736;2022-07-24T09:22:50;101407.00;;;33.00
37536;BMP180;23379;51.554;6.736;2022-07-24T09:25:27;101416.00;;;34.00
37536;BMP180;23379;51.554;6.736;2022-07-24T09:27:57;101405.00;;;33.60
37536;BMP180;23379;51.554;6.736;2022-07-24T09:30:24;101423.00;;;33.40
37536;BMP180;23379;51.554;6.736;2022-07-24T09:32:54;101409.00;;;32.90
37536;BMP180;23379;51.554;6.736;2022-07-24T09:35:28;101412.00;;;34.10
37536;BMP180;23379;51.554;6.736;2022-07-24T09:37:56;101416.00;;;33.50
37536;BMP180;23379;51.554;6.736;2022-07-24T09:40:28;101419.00;;;33.00
37536;BMP180;23379;51.554;6.736;2022-07-24T09:43:11;101405.00;;;32.70
37536;BMP180;23379;51.554;6.736;2022-07-24T09:48:21;101431.00;;;33.90
37536;BMP180;23379;51.554;6.736;2022-07-24T09:50:52;101423.00;;;33.60
37536;BMP180;23379;51.554;6.736;2022-07-24T09:53:20;101419.00;;;33.60
37536;BMP180;23379;51.554;6.736;2022-07-24T09:56:00;101411.00;;;34.60
37536;BMP180;23379;51.554;6.736;2022-07-24T09:58:27;101411.00;;;34.20
37536;BMP180;23379;51.554;6.736;2022-07-24T10:00:54;101416.00;;;33.60
37536;BMP180;23379;51.554;6.736;2022-07-24T10:03:24;101407.00;;;34.50
37536;BMP180;23379;51.554;6.736;2022-07-24T10:05:53;101410.00;;;34.90
37536;BMP180;23379;51.554;6.736;2022-07-24T10:08:21;101414.00;;;34.20
37536;BMP180;23379;51.554;6.736;2022-07-24T10:10:49;101401.00;;;35.00
37536;BMP180;23379;51.554;6.736;2022-07-24T10:13:15;101388.00;;;34.10
37536;BMP180;23379;51.554;6.736;2022-07-24T10:15:52;101375.00;;;32.40
37536;BMP180;23379;51.554;6.736;2022-07-24T10:18:19;101413.00;;;33.30
37536;BMP180;23379;51.554;6.736;2022-07-24T10:20:46;101392.00;;;33.20
37536;BMP180;23379;51.554;6.736;2022-07-24T10:23:35;101392.00;;;33.30
37536;BMP180;23379;51.554;6.736;2022-07-24T10:26:05;101387.00;;;33.10
37536;BMP180;23379;51.554;6.736;2022-07-24T10:28:40;101384.00;;;33.50
37536;BMP180;23379;51.554;6.736;2022-07-24T10:31:09;101382.00;;;33.90
37536;BMP180;23379;51.554;6.736;2022-07-24T10:33:36;101381.00;;;33.80
37536;BMP180;23379;51.554;6.736;2022-07-24T10:36:06;101382.00;;;34.00
37536;BMP180;23379;51.554;6.736;2022-07-24T10:38:37;101393.00;;;34.10
37536;BMP180;23379;51.554;6.736;2022-07-24T10:41:10;101374.00;;;33.60
37536;BMP180;23379;51.554;6.736;2022-07-24T10:43:37;101394.00;;;34.30
37536;BMP180;23379;51.554;6.736;2022-07-24T10:48:31;101382.00;;;35.30
37536;BMP180;23379;51.554;6.736;2022-07-24T10:53:30;101383.00;;;35.60
37536;BMP180;23379;51.554;6.736;2022-07-24T10:56:41;101383.00;;;35.10
37536;BMP180;23379;51.554;6.736;2022-07-24T10:58:56;101363.00;;;34.80
37536;BMP180;23379;51.554;6.736;2022-07-24T11:03:59;101361.00;;;35.30
37536;BMP180;23379;51.554;6.736;2022-07-24T11:06:48;101352.00;;;34.90
37536;BMP180;23379;51.554;6.736;2022-07-24T11:09:18;101359.00;;;35.40
37536;BMP180;23379;51.554;6.736;2022-07-24T11:17:41;101355.00;;;34.90
37536;BMP180;23379;51.554;6.736;2022-07-24T11:20:08;101360.00;;;36.80
37536;BMP180;23379;51.554;6.736;2022-07-24T11:25:20;101336.00;;;34.20
37536;BMP180;23379;51.554;6.736;2022-07-24T11:27:51;101334.00;;;35.50
37536;BMP180;23379;51.554;6.736;2022-07-24T11:30:19;101349.00;;;35.30
37536;BMP180;23379;51.554;6.736;2022-07-24T11:32:45;101335.00;;;34.80
37536;BMP180;23379;51.554;6.736;2022-07-24T11:35:12;101339.00;;;34.80
37536;BMP180;23379;51.554;6.736;2022-07-24T11:37:41;101338.00;;;32.80
37536;BMP180;23379;51.554;6.736;2022-07-24T11:40:12;101333.00;;;33.20
37536;BMP180;23379;51.554;6.736;2022-07-24T11:42:38;101313.00;;;33.10
37536;BMP180;23379;51.554;6.736;2022-07-24T11:45:04;101327.00;;;32.90
37536;BMP180;23379;51.554;6.736;2022-07-24T11:47:30;101324.00;;;34.90
37536;BMP180;23379;51.554;6.736;2022-07-24T11:50:02;101323.00;;;34.90
37536;BMP180;23379;51.554;6.736;2022-07-24T11:52:37;101318.00;;;35.00
37536;BMP180;23379;51.554;6.736;2022-07-24T11:55:12;101298.00;;;32.80
37536;BMP180;23379;51.554;6.736;2022-07-24T11:57:40;101314.00;;;32.10
37536;BMP180;23379;51.554;6.736;2022-07-24T12:00:08;101300.00;;;32.80
37536;BMP180;23379;51.554;6.736;2022-07-24T12:02:36;101307.00;;;34.50
37536;BMP180;23379;51.554;6.736;2022-07-24T12:05:02;101298.00;;;32.10
37536;BMP180;23379;51.554;6.736;2022-07-24T12:07:27;101289.00;;;32.40
37536;BMP180;23379;51.554;6.736;2022-07-24T12:10:01;101297.00;;;33.10
37536;BMP180;23379;51.554;6.736;2022-07-24T12:15:12;101293.00;;;34.80
37536;BMP180;23379;51.554;6.736;2022-07-24T12:17:58;101302.00;;;34.90
37536;BMP180;23379;51.554;6.736;2022-07-24T12:20:26;101293.00;;;35.30
37536;BMP180;23379;51.554;6.736;2022-07-24T12:22:53;101300.00;;;33.50
37536;BMP180;23379;51.554;6.736;2022-07-24T12:25:24;101279.00;;;35.00
37536;BMP180;23379;51.554;6.736;2022-07-24T12:27:52;101282.00;;;36.10
37536;BMP180;23379;51.554;6.736;2022-07-24T12:30:28;101287.00;;;35.40
37536;BMP180;23379;51.554;6.736;2022-07-24T12:33:00;101287.00;;;36.10
37536;BMP180;23379;51.554;6.736;2022-07-24T12:35:28;101277.00;;;37.70
37536;BMP180;23379;51.554;6.736;2022-07-24T12:37:55;101276.00;;;37.10
37536;BMP180;23379;51.554;6.736;2022-07-24T12:40:36;101286.00;;;37.60
37536;BMP180;23379;51.554;6.736;2022-07-24T12:43:11;101271.00;;;37.10
37536;BMP180;23379;51.554;6.736;2022-07-24T12:45:38;101281.00;;;36.70
37536;BMP180;23379;51.554;6.736;2022-07-24T12:48:19;101269.00;;;36.20
37536;BMP180;23379;51.554;6.736;2022-07-24T12:53:29;101267.00;;;38.30
37536;BMP180;23379;51.554;6.736;2022-07-24T12:56:14;101271.00;;;38.70
37536;BMP180;23379;51.554;6.736;2022-07-24T12:58:53;101270.00;;;39.10
37536;BMP180;23379;51.554;6.736;2022-07-24T13:01:20;101263.00;;;38.20
37536;BMP180;23379;51.554;6.736;2022-07-24T13:03:53;101265.00;;;38.50
37536;BMP180;23379;51.554;6.736;2022-07-24T13:06:18;101237.00;;;37.80
37536;BMP180;23379;51.554;6.736;2022-07-24T13:08:44;101243.00;;;37.00
37536;BMP180;23379;51.554;6.736;2022-07-24T13:11:09;101243.00;;;37.00
37536;BMP180;23379;51.554;6.736;2022-07-24T13:13:35;101249.00;;;35.70
37536;BMP180;23379;51.554;6.736;2022-07-24T13:16:03;101240.00;;;37.50
37536;BMP180;23379;51.554;6.736;2022-07-24T13:18:28;101223.00;;;37.30
37536;BMP180;23379;51.554;6.736;2022-07-24T13:20:54;101228.00;;;37.70
37536;BMP180;23379;51.554;6.736;2022-07-24T13:23:19;101233.00;;;38.10
37536;BMP180;23379;51.554;6.736;2022-07-24T13:25:44;101232.00;;;37.60
37536;BMP180;23379;51.554;6.736;2022-07-24T13:28:12;101234.00;;;38.80
37536;BMP180;23379;51.554;6.736;2022-07-24T13:30:38;101221.00;;;37.30
37536;BMP180;23379;51.554;6.736;2022-07-24T13:33:03;101231.00;;;37.50
37536;BMP180;23379;51.554;6.736;2022-07-24T13:35:29;101212.00;;;38.60
37536;BMP180;23379;51.554;6.736;2022-07-24T13:37:54;101216.00;;;37.50
37536;BMP180;23379;51.554;6.736;2022-07-24T13:40:20;101212.00;;;37.80
37536;BMP180;23379;51.554;6.736;2022-07-24T13:42:45;101206.00;;;37.50
37536;BMP180;23379;51.554;6.736;2022-07-24T13:45:11;101204.00;;;36.30
37536;BMP180;23379;51.554;6.736;2022-07-24T13:47:36;101205.00;;;36.30
37536;BMP180;23379;51.554;6.736;2022-07-24T13:50:02;101211.00;;;37.60
37536;BMP180;23379;51.554;6.736;2022-07-24T13:52:27;101206.00;;;37.90
37536;BMP180;23379;51.554;6.736;2022-07-24T13:54:53;101174.00;;;37.30
37536;BMP180;23379;51.554;6.736;2022-07-24T13:57:18;101186.00;;;37.30
37536;BMP180;23379;51.554;6.736;2022-07-24T13:59:44;101183.00;;;37.20
37536;BMP180;23379;51.554;6.736;2022-07-24T14:02:09;101175.00;;;35.10
37536;BMP180;23379;51.554;6.736;2022-07-24T14:04:34;101184.00;;;34.40
37536;BMP180;23379;51.554;6.736;2022-07-24T14:07:00;101174.00;;;34.30
37536;BMP180;23379;51.554;6.736;2022-07-24T14:09:27;101147.00;;;34.00
37536;BMP180;23379;51.554;6.736;2022-07-24T14:11:54;101175.00;;;33.60
37536;BMP180;23379;51.554;6.736;2022-07-24T14:14:20;101145.00;;;33.90
37536;BMP180;23379;51.554;6.736;2022-07-24T14:16:46;101149.00;;;33.40
37536;BMP180;23379;51.554;6.736;2022-07-24T14:19:11;101145.00;;;33.70